Time;durP1;ratioP1;P1;durP2;ratioP2;P2;SDS_P1;SDS_P2;PMS_P1;PMS_P2;Temp;Humidity;BMP_temperature;BMP_pressure;BME280_temperature;BME280_humidity;BME280_pressure;Samples;Min_cycle;Max_cycle;Signal;HPM_P1;HPM_P2
2021/01/20 00:02:02;;;;;;;;;;;2.40;99.90;;;;;;5053210;28;19924;-88
2021/01/20 00:04:27;;;;;;;;;;;2.50;99.90;;;;;;5052993;28;19916;-87
2021/01/20 00:06:53;;;;;;;;;;;2.60;99.90;;;;;;5052956;28;19947;-88
2021/01/20 00:09:18;;;;;;;;;;;2.50;99.90;;;;;;5053214;28;19939;-87
2021/01/20 00:11:44;;;;;;;;;;;2.50;99.90;;;;;;5053099;28;19909;-87
2021/01/20 00:14:14;;;;;;;;;;;2.50;99.90;;;;;;5052787;28;20363;-86
2021/01/20 00:16:39;;;;;;;;;;;2.50;99.90;;;;;;5052731;28;19912;-88
2021/01/20 00:19:08;;;;;;;;;;;2.50;99.90;;;;;;5052829;28;19915;-88
2021/01/20 00:21:37;;;;;;;;;;;2.50;99.90;;;;;;5052633;28;20419;-86
2021/01/20 00:24:03;;;;;;;;;;;2.50;99.90;;;;;;5052767;28;19909;-88
2021/01/20 00:26:30;;;;;;;;;;;2.50;99.90;;;;;;5052793;28;19909;-88
2021/01/20 00:28:58;;;;;;;;;;;2.80;99.90;;;;;;5052749;28;19913;-86
2021/01/20 00:31:24;;;;;;;;;;;2.70;99.60;;;;;;5052349;28;19909;-86
2021/01/20 00:33:52;;;;;;;;;;;2.60;99.90;;;;;;5052544;28;19932;-87
2021/01/20 00:36:20;;;;;;;;;;;2.50;99.90;;;;;;5052848;28;20004;-87
2021/01/20 00:38:45;;;;;;;;;;;2.50;99.90;;;;;;5052864;28;19988;-86
2021/01/20 00:41:14;;;;;;;;;;;2.60;99.90;;;;;;5052601;28;20002;-86
2021/01/20 00:43:42;;;;;;;;;;;2.60;99.90;;;;;;5052380;28;19928;-87
2021/01/20 00:46:07;;;;;;;;;;;2.60;99.90;;;;;;5052549;28;19917;-87
2021/01/20 00:48:33;;;;;;;;;;;2.60;99.90;;;;;;5052256;28;20387;-85
2021/01/20 00:50:58;;;;;;;;;;;2.70;99.90;;;;;;5052520;28;19908;-88
2021/01/20 00:53:26;;;;;;;;;;;2.70;99.90;;;;;;5052510;28;19913;-87
2021/01/20 00:55:52;;;;;;;;;;;2.60;99.90;;;;;;5052351;28;19913;-87
2021/01/20 00:58:20;;;;;;;;;;;2.70;99.90;;;;;;5052324;28;20314;-86
2021/01/20 01:00:48;;;;;;;;;;;2.60;99.90;;;;;;5052320;28;19953;-87
2021/01/20 01:03:13;;;;;;;;;;;2.70;99.90;;;;;;5052134;28;20007;-86
2021/01/20 01:05:43;;;;;;;;;;;2.70;99.90;;;;;;5052398;28;20012;-87
2021/01/20 01:08:08;;;;;;;;;;;2.70;99.90;;;;;;5052298;28;20280;-87
2021/01/20 01:10:34;;;;;;;;;;;2.70;99.90;;;;;;5052461;28;19909;-88
2021/01/20 01:12:59;;;;;;;;;;;2.70;99.90;;;;;;5052205;28;19916;-87
2021/01/20 01:15:25;;;;;;;;;;;2.90;99.90;;;;;;5052231;28;19916;-87
2021/01/20 01:17:53;;;;;;;;;;;2.90;99.90;;;;;;5052298;28;19946;-87
2021/01/20 01:20:19;;;;;;;;;;;2.80;99.90;;;;;;5052289;28;19909;-87
2021/01/20 01:22:44;;;;;;;;;;;2.70;99.90;;;;;;5052233;28;19913;-88
2021/01/20 01:25:10;;;;;;;;;;;2.70;99.90;;;;;;5052246;28;19923;-87
2021/01/20 01:27:36;;;;;;;;;;;2.70;99.90;;;;;;5052011;28;19908;-88
2021/01/20 01:30:02;;;;;;;;;;;2.70;99.90;;;;;;5052466;28;19913;-87
2021/01/20 01:32:27;;;;;;;;;;;2.70;99.90;;;;;;5053238;28;19909;-87
2021/01/20 01:34:55;;;;;;;;;;;2.70;99.90;;;;;;5052152;28;20252;-87
2021/01/20 01:37:23;;;;;;;;;;;2.70;99.90;;;;;;5052202;28;19909;-88
2021/01/20 01:39:51;;;;;;;;;;;2.80;99.90;;;;;;5051958;28;20352;-88
2021/01/20 01:42:24;;;;;;;;;;;2.80;99.90;;;;;;5052015;28;19960;-87
2021/01/20 01:44:52;;;;;;;;;;;2.80;99.90;;;;;;5054245;28;19942;-87
2021/01/20 01:47:18;;;;;;;;;;;2.80;99.90;;;;;;5055683;28;19909;-87
2021/01/20 01:49:44;;;;;;;;;;;2.70;99.90;;;;;;5055920;28;19916;-88
2021/01/20 01:52:09;;;;;;;;;;;2.70;99.90;;;;;;5055659;28;20368;-87
2021/01/20 01:54:35;;;;;;;;;;;2.60;99.90;;;;;;5204637;22;20005;-90
2021/01/20 01:57:01;;;;;;;;;;;2.70;99.90;;;;;;5076622;28;19915;-90
2021/01/20 01:59:28;;;;;;;;;;;2.60;99.90;;;;;;5202044;22;19951;-86
2021/01/20 02:01:55;;;;;;;;;;;2.70;99.90;;;;;;5075506;28;19920;-86
2021/01/20 02:04:20;;;;;;;;;;;2.60;99.90;;;;;;5075226;28;19924;-86
2021/01/20 02:06:49;;;;;;;;;;;2.70;99.90;;;;;;5075211;28;19946;-85
2021/01/20 02:09:15;;;;;;;;;;;2.70;99.90;;;;;;5076766;28;20003;-84
2021/01/20 02:11:54;;;;;;;;;;;2.70;99.90;;;;;;5075309;28;19961;-83
2021/01/20 02:14:29;;;;;;;;;;;2.70;99.90;;;;;;5075410;28;19930;-85
2021/01/20 02:17:02;;;;;;;;;;;2.70;99.90;;;;;;5075144;28;19999;-86
2021/01/20 02:19:50;;;;;;;;;;;2.70;99.90;;;;;;5075192;28;19912;-86
2021/01/20 02:25:10;;;;;;;;;;;2.60;99.90;;;;;;5054799;28;19972;-89
2021/01/20 02:27:42;;;;;;;;;;;2.60;99.90;;;;;;5038822;28;19913;-89
2021/01/20 02:30:09;;;;;;;;;;;2.80;99.90;;;;;;5039098;28;20003;-89
2021/01/20 02:32:35;;;;;;;;;;;2.90;99.90;;;;;;5039271;28;19995;-90
2021/01/20 02:35:02;;;;;;;;;;;2.80;99.90;;;;;;5039000;28;19912;-91
2021/01/20 02:37:27;;;;;;;;;;;2.70;99.90;;;;;;5038974;28;19948;-90
2021/01/20 02:39:53;;;;;;;;;;;2.70;99.90;;;;;;5038881;28;19909;-90
2021/01/20 02:42:19;;;;;;;;;;;2.70;99.90;;;;;;5038743;28;19954;-89
2021/01/20 02:44:44;;;;;;;;;;;2.70;99.90;;;;;;5038933;28;19917;-90
2021/01/20 02:47:10;;;;;;;;;;;2.70;99.90;;;;;;5038886;28;20312;-88
2021/01/20 02:49:36;;;;;;;;;;;2.60;99.90;;;;;;5039138;28;19909;-90
2021/01/20 02:52:20;;;;;;;;;;;2.60;99.90;;;;;;5038758;28;19909;-91
2021/01/20 02:54:48;;;;;;;;;;;2.70;99.90;;;;;;5038423;28;20344;-90
2021/01/20 02:57:16;;;;;;;;;;;2.60;99.90;;;;;;5039223;28;19909;-90
2021/01/20 02:59:45;;;;;;;;;;;2.60;99.90;;;;;;5038655;28;19916;-90
2021/01/20 03:02:13;;;;;;;;;;;2.60;99.90;;;;;;5038278;28;20409;-88
2021/01/20 03:04:46;;;;;;;;;;;2.60;99.90;;;;;;5038422;28;20335;-88
2021/01/20 03:07:15;;;;;;;;;;;2.60;99.90;;;;;;5038090;28;19923;-90
2021/01/20 03:09:40;;;;;;;;;;;2.60;99.90;;;;;;5038043;28;20051;-91
2021/01/20 03:12:06;;;;;;;;;;;2.60;99.90;;;;;;5038107;28;19966;-89
2021/01/20 03:14:39;;;;;;;;;;;2.60;99.90;;;;;;5038121;28;19916;-90
2021/01/20 03:17:05;;;;;;;;;;;2.60;99.90;;;;;;5038134;28;19959;-88
2021/01/20 03:19:33;;;;;;;;;;;2.50;99.90;;;;;;5038384;28;19912;-90
2021/01/20 03:22:00;;;;;;;;;;;2.50;99.90;;;;;;5038649;28;20347;-90
2021/01/20 03:24:26;;;;;;;;;;;2.50;99.90;;;;;;5037739;28;20279;-89
2021/01/20 03:26:52;;;;;;;;;;;2.50;99.90;;;;;;5037901;28;19999;-88
2021/01/20 03:29:17;;;;;;;;;;;2.50;99.90;;;;;;5038040;28;19909;-91
2021/01/20 03:31:43;;;;;;;;;;;2.40;99.90;;;;;;5038108;28;20363;-91
2021/01/20 03:34:08;;;;;;;;;;;2.40;99.90;;;;;;5037936;28;19908;-91
2021/01/20 03:36:34;;;;;;;;;;;2.30;99.90;;;;;;5347252;22;19975;-86
2021/01/20 03:39:01;;;;;;;;;;;2.40;99.90;;;;;;5073475;28;19923;-86
2021/01/20 03:41:27;;;;;;;;;;;2.40;99.90;;;;;;5073548;28;19909;-86
2021/01/20 03:43:52;;;;;;;;;;;2.40;99.90;;;;;;5073573;28;20274;-86
2021/01/20 03:46:18;;;;;;;;;;;2.30;99.90;;;;;;5183677;22;20298;-90
2021/01/20 03:48:43;;;;;;;;;;;2.40;99.90;;;;;;5189350;22;19900;-89
2021/01/20 03:51:09;;;;;;;;;;;2.40;99.90;;;;;;5176951;22;19925;-87
2021/01/20 03:53:37;;;;;;;;;;;2.40;99.90;;;;;;5073373;28;20366;-86
2021/01/20 03:56:02;;;;;;;;;;;2.50;99.90;;;;;;5073176;28;19919;-86
2021/01/20 03:58:28;;;;;;;;;;;2.60;99.90;;;;;;5073503;28;19916;-86
2021/01/20 04:00:56;;;;;;;;;;;2.60;99.90;;;;;;5073190;28;19913;-86
2021/01/20 04:03:21;;;;;;;;;;;2.60;99.90;;;;;;5072839;28;19912;-86
2021/01/20 04:05:47;;;;;;;;;;;2.60;99.90;;;;;;5072499;28;19966;-87
2021/01/20 04:08:12;;;;;;;;;;;2.50;99.90;;;;;;5073782;28;20359;-87
2021/01/20 04:10:38;;;;;;;;;;;2.60;99.90;;;;;;5073043;28;19908;-86
2021/01/20 04:13:08;;;;;;;;;;;2.70;99.90;;;;;;5073039;28;19912;-85
2021/01/20 04:15:34;;;;;;;;;;;2.60;99.90;;;;;;5073034;28;19912;-87
2021/01/20 04:17:59;;;;;;;;;;;2.60;99.90;;;;;;5072618;28;19962;-87
2021/01/20 04:20:25;;;;;;;;;;;2.60;99.90;;;;;;5070761;28;20374;-87
2021/01/20 04:22:50;;;;;;;;;;;2.60;99.90;;;;;;5072981;28;19920;-86
2021/01/20 04:25:16;;;;;;;;;;;2.60;99.90;;;;;;5086590;28;20415;-87
2021/01/20 04:27:43;;;;;;;;;;;2.70;99.90;;;;;;5072342;28;20288;-86
2021/01/20 04:30:08;;;;;;;;;;;2.60;99.90;;;;;;5072491;28;19908;-86
2021/01/20 04:32:34;;;;;;;;;;;2.60;99.90;;;;;;5072995;28;20014;-88
2021/01/20 04:35:00;;;;;;;;;;;2.70;99.90;;;;;;5072511;28;19909;-86
2021/01/20 04:37:25;;;;;;;;;;;2.70;99.90;;;;;;5072913;28;19944;-86
2021/01/20 04:39:53;;;;;;;;;;;2.90;99.90;;;;;;5072188;28;20352;-87
2021/01/20 04:42:21;;;;;;;;;;;2.80;99.90;;;;;;5072575;28;19908;-88
2021/01/20 04:44:51;;;;;;;;;;;2.80;99.90;;;;;;5072189;28;19955;-86
2021/01/20 04:47:16;;;;;;;;;;;2.70;99.90;;;;;;5058856;28;20324;-87
2021/01/20 04:49:45;;;;;;;;;;;2.80;99.90;;;;;;5072589;28;19923;-86
2021/01/20 04:52:14;;;;;;;;;;;2.80;99.90;;;;;;5075612;28;19947;-86
2021/01/20 04:54:40;;;;;;;;;;;2.70;99.90;;;;;;5075552;28;19923;-86
2021/01/20 04:57:05;;;;;;;;;;;2.70;99.90;;;;;;5075810;28;20108;-86
2021/01/20 04:59:31;;;;;;;;;;;2.70;99.90;;;;;;5075063;28;19908;-86
2021/01/20 05:01:57;;;;;;;;;;;2.60;99.90;;;;;;5072337;28;20244;-86
2021/01/20 05:04:22;;;;;;;;;;;2.70;99.90;;;;;;5072573;28;19914;-88
2021/01/20 05:06:48;;;;;;;;;;;2.60;99.90;;;;;;5077636;28;19961;-86
2021/01/20 05:09:13;;;;;;;;;;;2.60;99.90;;;;;;5074156;28;19920;-87
2021/01/20 05:11:40;;;;;;;;;;;2.60;99.90;;;;;;5072489;28;19908;-86
2021/01/20 05:14:12;;;;;;;;;;;2.60;99.90;;;;;;5070333;28;19990;-86
2021/01/20 05:16:38;;;;;;;;;;;2.50;99.90;;;;;;5074671;28;19908;-89
2021/01/20 05:19:04;;;;;;;;;;;2.50;99.90;;;;;;5075772;28;20271;-86
2021/01/20 05:21:29;;;;;;;;;;;2.50;99.90;;;;;;5078393;28;19912;-87
2021/01/20 05:24:15;;;;;;;;;;;2.50;99.90;;;;;;5097587;28;19930;-86
2021/01/20 05:26:44;;;;;;;;;;;2.40;99.90;;;;;;5078973;28;19923;-87
2021/01/20 05:29:09;;;;;;;;;;;2.60;99.90;;;;;;5079381;28;19908;-86
2021/01/20 05:31:35;;;;;;;;;;;2.60;99.90;;;;;;5078544;28;19931;-86
2021/01/20 05:34:03;;;;;;;;;;;2.60;99.90;;;;;;5079017;28;20271;-86
2021/01/20 05:36:31;;;;;;;;;;;2.60;99.90;;;;;;5078662;28;20013;-86
2021/01/20 05:38:57;;;;;;;;;;;2.70;99.90;;;;;;5079069;28;20358;-86
2021/01/20 05:41:25;;;;;;;;;;;2.80;99.90;;;;;;5079112;28;19979;-87
2021/01/20 05:43:54;;;;;;;;;;;2.90;99.90;;;;;;5078991;28;19912;-85
2021/01/20 05:46:36;;;;;;;;;;;2.90;99.90;;;;;;5089791;28;19912;-86
2021/01/20 05:49:02;;;;;;;;;;;2.90;99.90;;;;;;5078893;28;19916;-87
2021/01/20 05:51:38;;;;;;;;;;;2.80;99.90;;;;;;5176356;22;19929;-79
2021/01/20 05:54:04;;;;;;;;;;;2.80;99.90;;;;;;5018630;28;20034;-78
2021/01/20 05:56:30;;;;;;;;;;;2.80;99.90;;;;;;5018238;28;19967;-78
2021/01/20 05:58:56;;;;;;;;;;;2.90;99.90;;;;;;5018295;28;20265;-79
2021/01/20 06:01:22;;;;;;;;;;;2.90;99.90;;;;;;5018258;28;19939;-79
2021/01/20 06:03:48;;;;;;;;;;;2.90;99.90;;;;;;5017945;28;19914;-79
2021/01/20 06:06:17;;;;;;;;;;;3.00;99.90;;;;;;5018054;28;19920;-79
2021/01/20 06:08:43;;;;;;;;;;;3.10;99.90;;;;;;5018255;28;19913;-80
2021/01/20 06:11:09;;;;;;;;;;;3.20;99.90;;;;;;5016753;28;19966;-78
2021/01/20 06:13:35;;;;;;;;;;;3.20;99.90;;;;;;5013048;28;20331;-79
2021/01/20 06:16:16;;;;;;;;;;;3.20;99.90;;;;;;5017766;28;19916;-79
2021/01/20 06:18:48;;;;;;;;;;;3.20;99.90;;;;;;5032352;28;19909;-78
2021/01/20 06:21:17;;;;;;;;;;;3.20;99.90;;;;;;5030359;28;19932;-79
2021/01/20 06:24:06;;;;;;;;;;;3.20;99.90;;;;;;5033761;28;19916;-78
2021/01/20 06:26:33;;;;;;;;;;;3.20;99.90;;;;;;5014755;28;19940;-80
2021/01/20 06:29:02;;;;;;;;;;;3.20;99.90;;;;;;5017066;28;19936;-79
2021/01/20 06:31:29;;;;;;;;;;;3.30;99.90;;;;;;5018381;28;19909;-78
2021/01/20 06:33:55;;;;;;;;;;;3.30;99.90;;;;;;5034422;28;19936;-79
2021/01/20 06:36:35;;;;;;;;;;;3.30;99.90;;;;;;5033930;28;19909;-79
2021/01/20 06:39:01;;;;;;;;;;;3.40;99.90;;;;;;5025246;28;20348;-78
2021/01/20 06:41:40;;;;;;;;;;;3.50;99.90;;;;;;5020522;28;19909;-79
2021/01/20 06:44:07;;;;;;;;;;;3.60;99.90;;;;;;5017377;28;20360;-80
2021/01/20 06:46:35;;;;;;;;;;;3.70;99.90;;;;;;5030212;28;19917;-79
2021/01/20 06:49:01;;;;;;;;;;;3.70;99.90;;;;;;5023010;28;19909;-79
2021/01/20 06:51:27;;;;;;;;;;;3.60;99.90;;;;;;5039258;28;20390;-79
2021/01/20 06:54:02;;;;;;;;;;;3.60;99.90;;;;;;5057235;28;19951;-79
2021/01/20 06:56:32;;;;;;;;;;;3.60;99.90;;;;;;5056768;28;20195;-78
2021/01/20 06:59:13;;;;;;;;;;;3.60;99.90;;;;;;5050251;28;19920;-79
2021/01/20 07:01:38;;;;;;;;;;;3.60;99.90;;;;;;5036981;28;19920;-79
2021/01/20 07:04:06;;;;;;;;;;;3.60;99.90;;;;;;5044222;28;19908;-79
2021/01/20 07:06:35;;;;;;;;;;;3.60;99.90;;;;;;5056690;28;19962;-80
2021/01/20 07:09:01;;;;;;;;;;;3.60;99.90;;;;;;5056818;28;19912;-78
2021/01/20 07:11:26;;;;;;;;;;;3.60;99.90;;;;;;5056458;28;19913;-79
2021/01/20 07:13:52;;;;;;;;;;;3.60;99.90;;;;;;5056715;28;19958;-80
2021/01/20 07:16:18;;;;;;;;;;;3.70;99.90;;;;;;5047053;28;19915;-79
2021/01/20 07:18:47;;;;;;;;;;;3.70;99.90;;;;;;5052770;28;19908;-79
2021/01/20 07:21:13;;;;;;;;;;;3.70;99.90;;;;;;5151386;22;19940;-78
2021/01/20 07:23:39;;;;;;;;;;;3.70;99.90;;;;;;5152981;22;19960;-90
2021/01/20 07:26:08;;;;;;;;;;;3.70;99.90;;;;;;5053437;28;19928;-90
2021/01/20 07:28:35;;;;;;;;;;;3.70;99.90;;;;;;5069703;28;20288;-90
2021/01/20 07:31:11;;;;;;;;;;;3.70;99.90;;;;;;5066459;28;19912;-91
2021/01/20 08:17:49;;;;;;;;;;;4.40;97.40;;;;;;5092860;28;20013;-89
2021/01/20 08:20:17;;;;;;;;;;;4.30;97.90;;;;;;5074863;28;20388;-90
2021/01/20 08:22:46;;;;;;;;;;;4.30;97.60;;;;;;5085269;28;19939;-90
2021/01/20 08:25:17;;;;;;;;;;;4.40;96.70;;;;;;5064818;28;19912;-90
2021/01/20 08:27:44;;;;;;;;;;;4.40;97.90;;;;;;5079682;28;19920;-90
2021/01/20 08:30:12;;;;;;;;;;;4.40;97.80;;;;;;5086903;28;19950;-90
2021/01/20 08:32:51;;;;;;;;;;;4.40;96.90;;;;;;5074872;28;20383;-89
2021/01/20 08:35:24;;;;;;;;;;;4.40;97.60;;;;;;5074394;28;19938;-88
2021/01/20 08:37:52;;;;;;;;;;;4.40;97.80;;;;;;5074940;28;20000;-89
2021/01/20 08:40:18;;;;;;;;;;;4.40;97.60;;;;;;5074899;28;19912;-90
2021/01/20 08:42:45;;;;;;;;;;;4.50;96.70;;;;;;5074746;28;19908;-89
2021/01/20 08:45:16;;;;;;;;;;;4.60;95.80;;;;;;5074623;28;19912;-89
2021/01/20 08:47:46;;;;;;;;;;;4.70;96.50;;;;;;5074203;28;19927;-90
2021/01/20 08:50:13;;;;;;;;;;;4.70;96.20;;;;;;5073726;28;19998;-90
2021/01/20 08:52:44;;;;;;;;;;;4.70;95.70;;;;;;5075566;28;19969;-88
2021/01/20 08:55:10;;;;;;;;;;;4.80;95.30;;;;;;5065017;28;19943;-89
2021/01/20 08:57:39;;;;;;;;;;;4.80;95.20;;;;;;5079603;28;19944;-89
2021/01/20 09:00:05;;;;;;;;;;;4.90;95.20;;;;;;5077187;28;20007;-89
2021/01/20 09:02:31;;;;;;;;;;;4.90;95.40;;;;;;5085202;28;20375;-91
2021/01/20 09:04:56;;;;;;;;;;;4.90;95.50;;;;;;5079054;28;19958;-89
2021/01/20 09:07:24;;;;;;;;;;;5.00;95.40;;;;;;5079153;28;19922;-87
2021/01/20 09:09:54;;;;;;;;;;;5.00;93.90;;;;;;5065804;28;19909;-88
2021/01/20 09:12:22;;;;;;;;;;;5.10;94.40;;;;;;5097483;28;20003;-89
2021/01/20 09:14:55;;;;;;;;;;;5.10;93.60;;;;;;5075928;28;19979;-89
2021/01/20 15:41:28;;;;;;;;;;;6.10;92.70;;;;;;5049299;28;19947;-88
2021/01/20 15:43:56;;;;;;;;;;;6.00;93.00;;;;;;5047730;28;19917;-88
2021/01/20 15:46:21;;;;;;;;;;;6.00;94.00;;;;;;5037262;28;20008;-88
2021/01/20 15:48:47;;;;;;;;;;;5.90;93.60;;;;;;5037567;28;20007;-88
2021/01/20 15:51:13;;;;;;;;;;;5.90;94.80;;;;;;5032215;28;19909;-89
2021/01/20 15:53:39;;;;;;;;;;;5.80;94.60;;;;;;5048726;28;19920;-89
2021/01/20 15:56:05;;;;;;;;;;;5.80;94.00;;;;;;5034796;28;19921;-88
2021/01/20 15:58:33;;;;;;;;;;;5.70;94.40;;;;;;5036793;28;19913;-89
2021/01/20 16:01:01;;;;;;;;;;;5.70;95.00;;;;;;5036777;28;19921;-89
2021/01/20 16:03:27;;;;;;;;;;;5.70;94.90;;;;;;5035099;28;19919;-88
2021/01/20 16:05:52;;;;;;;;;;;5.70;94.90;;;;;;5173694;22;19924;-80
2021/01/20 16:08:18;;;;;;;;;;;5.70;95.40;;;;;;5069590;28;19924;-79
2021/01/20 16:10:43;;;;;;;;;;;5.60;94.90;;;;;;5067943;28;20397;-79
2021/01/20 16:13:11;;;;;;;;;;;5.60;95.60;;;;;;5060644;28;19912;-79
2021/01/20 16:15:40;;;;;;;;;;;5.60;94.80;;;;;;5067857;28;19965;-78
2021/01/20 16:18:05;;;;;;;;;;;5.70;94.50;;;;;;5068593;28;20374;-79
2021/01/20 16:20:31;;;;;;;;;;;5.70;95.00;;;;;;5068206;28;19912;-78
2021/01/20 16:22:59;;;;;;;;;;;5.70;94.50;;;;;;5068243;28;20366;-79
2021/01/20 16:25:25;;;;;;;;;;;5.60;94.60;;;;;;5067740;28;19920;-78
2021/01/20 16:27:50;;;;;;;;;;;5.70;95.10;;;;;;5068287;28;19912;-79
2021/01/20 16:30:16;;;;;;;;;;;5.70;94.90;;;;;;5068186;28;19912;-80
2021/01/20 16:32:43;;;;;;;;;;;5.60;95.00;;;;;;5068098;28;19924;-79
2021/01/20 16:35:09;;;;;;;;;;;5.60;95.60;;;;;;5067848;28;19913;-80
2021/01/20 16:37:35;;;;;;;;;;;5.50;95.50;;;;;;5069444;28;19919;-79
2021/01/20 16:40:02;;;;;;;;;;;5.50;95.60;;;;;;5067478;28;19912;-79
2021/01/20 16:42:30;;;;;;;;;;;5.50;96.20;;;;;;5064236;28;20256;-81
2021/01/20 16:44:55;;;;;;;;;;;5.40;96.00;;;;;;5066499;28;20383;-79
2021/01/20 16:47:21;;;;;;;;;;;5.40;96.00;;;;;;5064385;28;19966;-80
2021/01/20 16:49:47;;;;;;;;;;;5.40;96.50;;;;;;5062668;28;20290;-79
2021/01/20 16:52:12;;;;;;;;;;;5.30;97.00;;;;;;5068157;28;19962;-80
2021/01/20 16:54:38;;;;;;;;;;;5.30;97.10;;;;;;5067401;28;20306;-80
2021/01/20 16:57:04;;;;;;;;;;;5.20;97.20;;;;;;5068161;28;19931;-80
2021/01/20 16:59:32;;;;;;;;;;;5.20;97.50;;;;;;5069401;28;19936;-80
2021/01/20 17:01:57;;;;;;;;;;;5.20;97.80;;;;;;5068309;28;19970;-80
2021/01/20 17:04:23;;;;;;;;;;;5.10;99.60;;;;;;5066048;28;20379;-79
2021/01/20 17:06:48;;;;;;;;;;;5.10;98.90;;;;;;5068509;28;19924;-81
2021/01/20 17:09:14;;;;;;;;;;;5.10;98.80;;;;;;5065023;28;19916;-79
2021/01/20 17:11:40;;;;;;;;;;;5.00;99.00;;;;;;5064821;28;19931;-84
2021/01/20 17:14:08;;;;;;;;;;;5.00;99.20;;;;;;5056930;28;19921;-81
2021/01/20 17:16:33;;;;;;;;;;;5.00;99.50;;;;;;5065335;28;20299;-82
2021/01/20 17:18:59;;;;;;;;;;;4.90;99.70;;;;;;5071006;28;19923;-81
2021/01/20 17:21:24;;;;;;;;;;;4.90;99.90;;;;;;5064371;28;20004;-80
2021/01/20 17:23:50;;;;;;;;;;;4.90;99.90;;;;;;5070412;28;20519;-82
2021/01/20 17:26:16;;;;;;;;;;;4.90;99.90;;;;;;5174000;22;19929;-81
2021/01/20 17:28:42;;;;;;;;;;;4.80;99.90;;;;;;5049040;28;20296;-78
2021/01/20 17:31:07;;;;;;;;;;;4.80;99.90;;;;;;5058866;28;19924;-80
2021/01/20 17:33:33;;;;;;;;;;;4.70;99.90;;;;;;5051106;28;19956;-79
2021/01/20 17:35:58;;;;;;;;;;;4.70;99.90;;;;;;5075703;28;19916;-79
2021/01/20 17:38:24;;;;;;;;;;;4.70;99.90;;;;;;5045737;28;19913;-79
2021/01/20 17:40:49;;;;;;;;;;;4.70;99.90;;;;;;5047075;28;19944;-82
2021/01/20 17:43:20;;;;;;;;;;;4.70;99.90;;;;;;5066448;28;19927;-79
2021/01/20 17:45:46;;;;;;;;;;;4.70;99.90;;;;;;5058618;28;19921;-80
2021/01/20 17:48:11;;;;;;;;;;;4.70;99.90;;;;;;5065807;28;20003;-79
2021/01/20 17:50:37;;;;;;;;;;;4.70;99.90;;;;;;5072891;28;19919;-79
2021/01/20 17:53:03;;;;;;;;;;;4.70;99.90;;;;;;5060652;28;19966;-81
2021/01/20 17:55:31;;;;;;;;;;;4.70;99.90;;;;;;5051054;28;20318;-81
2021/01/20 18:00:25;;;;;;;;;;;4.70;99.90;;;;;;5081354;28;20370;-81
2021/01/20 18:02:50;;;;;;;;;;;4.70;99.90;;;;;;5056330;28;19962;-80
2021/01/20 18:05:16;;;;;;;;;;;4.70;99.90;;;;;;5071309;28;20028;-80
2021/01/20 18:07:42;;;;;;;;;;;4.80;99.90;;;;;;5071942;28;19916;-81
2021/01/20 18:10:08;;;;;;;;;;;4.80;99.90;;;;;;5053283;28;19913;-82
2021/01/20 18:12:38;;;;;;;;;;;4.80;99.50;;;;;;5060393;28;20342;-81
2021/01/20 18:15:05;;;;;;;;;;;4.80;99.20;;;;;;5056729;28;20007;-79
2021/01/20 18:17:32;;;;;;;;;;;4.90;98.90;;;;;;5066867;28;19916;-79
2021/01/20 18:19:58;;;;;;;;;;;4.90;98.70;;;;;;5058488;28;20408;-80
2021/01/20 18:22:26;;;;;;;;;;;4.90;98.20;;;;;;5053623;28;19913;-80
2021/01/20 18:24:51;;;;;;;;;;;4.90;98.60;;;;;;5059512;28;19954;-79
2021/01/20 18:27:17;;;;;;;;;;;4.90;97.40;;;;;;5066717;28;19912;-79
2021/01/20 18:29:43;;;;;;;;;;;4.90;98.40;;;;;;5071180;28;19947;-80
2021/01/20 18:32:09;;;;;;;;;;;5.00;98.40;;;;;;5064173;28;19961;-78
2021/01/20 18:34:34;;;;;;;;;;;5.00;97.10;;;;;;5073296;28;19909;-79
2021/01/20 18:37:00;;;;;;;;;;;5.00;97.60;;;;;;5071388;28;19912;-77
2021/01/20 18:39:26;;;;;;;;;;;5.00;97.80;;;;;;5064511;28;19908;-79
2021/01/20 18:41:51;;;;;;;;;;;5.00;98.40;;;;;;5059343;28;19916;-77
2021/01/20 18:44:17;;;;;;;;;;;4.90;97.80;;;;;;5056990;28;19915;-80
2021/01/20 18:46:42;;;;;;;;;;;5.00;97.60;;;;;;5068263;28;19978;-78
2021/01/20 18:49:08;;;;;;;;;;;5.10;98.50;;;;;;5056809;28;19912;-79
2021/01/20 18:51:33;;;;;;;;;;;5.30;95.60;;;;;;5056137;28;19998;-79
2021/01/20 18:54:00;;;;;;;;;;;5.30;96.20;;;;;;5072092;28;19970;-79
2021/01/20 18:56:25;;;;;;;;;;;5.20;95.80;;;;;;5074341;28;19988;-78
2021/01/20 18:58:51;;;;;;;;;;;5.30;96.20;;;;;;5053139;28;20244;-78
2021/01/20 19:01:17;;;;;;;;;;;5.30;95.80;;;;;;5054389;28;20298;-83
2021/01/20 19:03:45;;;;;;;;;;;5.30;95.70;;;;;;5055270;28;19943;-83
2021/01/20 19:06:10;;;;;;;;;;;5.20;96.50;;;;;;5045031;28;20013;-83
2021/01/20 19:08:36;;;;;;;;;;;5.20;95.40;;;;;;5043981;28;20367;-84
2021/01/20 19:11:02;;;;;;;;;;;5.30;95.50;;;;;;5165844;22;20291;-82
2021/01/20 19:13:52;;;;;;;;;;;5.30;96.00;;;;;;5267938;22;19909;31
2021/01/20 19:16:18;;;;;;;;;;;5.30;95.50;;;;;;5292657;22;19928;-91
2021/01/20 19:18:44;;;;;;;;;;;5.20;95.50;;;;;;5070607;28;20275;-88
2021/01/20 19:21:10;;;;;;;;;;;5.20;96.20;;;;;;5291318;22;19930;-85
2021/01/20 19:23:36;;;;;;;;;;;5.10;95.50;;;;;;5076523;28;19958;-87
2021/01/20 19:26:04;;;;;;;;;;;5.20;95.00;;;;;;5419581;22;19933;-78
2021/01/20 19:28:33;;;;;;;;;;;5.20;95.50;;;;;;5164150;22;19931;-84
2021/01/20 19:31:01;;;;;;;;;;;5.20;95.80;;;;;;5055718;28;20363;-84
2021/01/20 19:33:32;;;;;;;;;;;5.20;95.20;;;;;;5166703;22;19925;-85
2021/01/20 19:35:59;;;;;;;;;;;5.30;94.40;;;;;;5055664;28;19966;-85
2021/01/20 19:38:25;;;;;;;;;;;5.20;95.10;;;;;;5052913;28;19909;-85
2021/01/20 19:40:55;;;;;;;;;;;5.20;95.00;;;;;;5052857;28;19915;-85
2021/01/20 19:43:21;;;;;;;;;;;5.20;95.60;;;;;;5053211;28;19908;-85
2021/01/20 19:45:46;;;;;;;;;;;5.10;94.90;;;;;;5049936;28;19916;-84
2021/01/20 19:48:12;;;;;;;;;;;5.20;94.70;;;;;;5055009;28;19920;-85
2021/01/20 19:50:38;;;;;;;;;;;5.20;94.80;;;;;;5055358;28;19944;-85
2021/01/20 19:53:07;;;;;;;;;;;5.20;95.20;;;;;;5055003;28;19915;-85
2021/01/20 19:55:41;;;;;;;;;;;5.20;94.60;;;;;;5055377;28;19908;-85
2021/01/20 19:58:12;;;;;;;;;;;5.20;94.20;;;;;;5049004;28;19916;-86
2021/01/20 20:00:38;;;;;;;;;;;5.30;93.40;;;;;;5055135;28;19944;-85
2021/01/20 20:03:06;;;;;;;;;;;5.30;94.10;;;;;;5055733;28;19958;-86
2021/01/20 20:05:34;;;;;;;;;;;5.30;93.70;;;;;;5055470;28;19921;-86
2021/01/20 20:07:59;;;;;;;;;;;5.30;93.20;;;;;;5149924;23;20012;-83
2021/01/20 20:10:25;;;;;;;;;;;5.40;93.20;;;;;;5048850;28;20022;-83
2021/01/20 20:12:53;;;;;;;;;;;5.50;93.30;;;;;;5032167;28;19928;-86
2021/01/20 20:15:19;;;;;;;;;;;5.50;93.00;;;;;;5177179;22;19931;-77
2021/01/20 20:17:44;;;;;;;;;;;5.50;92.30;;;;;;5071217;28;19913;-78
2021/01/20 20:20:12;;;;;;;;;;;5.50;93.40;;;;;;5188069;22;19924;-85
2021/01/20 20:22:41;;;;;;;;;;;5.40;93.10;;;;;;5084348;28;19990;-87
2021/01/20 20:25:07;;;;;;;;;;;5.40;92.90;;;;;;5090425;28;19959;-84
2021/01/20 20:27:35;;;;;;;;;;;5.40;92.80;;;;;;5108184;28;20404;-83
2021/01/20 20:30:01;;;;;;;;;;;5.40;92.80;;;;;;5193493;22;21031;-79
2021/01/20 20:32:27;;;;;;;;;;;5.40;93.20;;;;;;5168383;22;20030;-78
2021/01/20 20:34:52;;;;;;;;;;;5.30;93.50;;;;;;5063442;28;20012;-77
2021/01/20 20:37:18;;;;;;;;;;;5.30;93.80;;;;;;5068697;28;19909;-80
2021/01/20 20:39:43;;;;;;;;;;;5.40;93.20;;;;;;5062379;28;20292;-80
2021/01/20 20:42:09;;;;;;;;;;;5.40;93.10;;;;;;5067942;28;19915;-79
2021/01/20 20:44:35;;;;;;;;;;;5.40;94.30;;;;;;5063453;28;19908;-80
2021/01/20 20:47:00;;;;;;;;;;;5.30;93.70;;;;;;5066779;28;19913;-80
2021/01/20 20:49:26;;;;;;;;;;;5.30;93.40;;;;;;5070005;28;19916;-79
2021/01/20 20:51:51;;;;;;;;;;;5.40;93.60;;;;;;5070184;28;19909;-79
2021/01/20 20:54:17;;;;;;;;;;;5.30;94.60;;;;;;5070220;28;19919;-78
2021/01/20 20:56:42;;;;;;;;;;;5.30;94.00;;;;;;5061033;28;19967;-79
2021/01/20 20:59:08;;;;;;;;;;;5.40;94.30;;;;;;5064462;28;19908;-78
2021/01/20 21:01:34;;;;;;;;;;;5.30;94.30;;;;;;5066913;28;19955;-77
2021/01/20 21:03:59;;;;;;;;;;;5.20;94.00;;;;;;5064762;28;19912;-79
2021/01/20 21:06:25;;;;;;;;;;;5.20;93.90;;;;;;5064938;28;19913;-80
2021/01/20 21:08:50;;;;;;;;;;;5.20;93.90;;;;;;5062912;28;19914;-81
2021/01/20 21:11:16;;;;;;;;;;;5.20;94.80;;;;;;5041487;28;20379;-80
2021/01/20 21:13:42;;;;;;;;;;;5.20;93.60;;;;;;5176697;22;20015;-80
2021/01/20 21:16:10;;;;;;;;;;;5.20;93.80;;;;;;5070583;28;19939;-77
2021/01/20 21:18:35;;;;;;;;;;;5.10;94.40;;;;;;5070348;28;19908;-77
2021/01/20 21:21:01;;;;;;;;;;;5.00;94.50;;;;;;5070359;28;20004;-78
2021/01/20 21:23:29;;;;;;;;;;;5.00;94.30;;;;;;5070460;28;20264;-77
2021/01/20 21:25:57;;;;;;;;;;;4.90;94.60;;;;;;5071387;28;19958;-78
2021/01/20 21:28:25;;;;;;;;;;;4.90;94.40;;;;;;5433654;22;19925;-80
2021/01/20 21:30:53;;;;;;;;;;;4.90;95.20;;;;;;5184836;22;19928;-79
2021/01/20 21:35:58;;;;;;;;;;;4.90;94.60;;;;;;5105243;22;19972;-85
2021/01/20 21:38:24;;;;;;;;;;;5.00;93.90;;;;;;5171621;22;19947;-91
2021/01/20 21:40:53;;;;;;;;;;;5.00;95.10;;;;;;5048240;28;20451;-90
2021/01/20 21:43:19;;;;;;;;;;;5.00;93.90;;;;;;5173588;23;19925;-89
2021/01/20 21:45:45;;;;;;;;;;;4.90;94.30;;;;;;5055798;28;19912;-89
2021/01/20 21:48:10;;;;;;;;;;;4.90;94.20;;;;;;5056328;28;19919;-88